Time;durP1;ratioP1;P1;durP2;ratioP2;P2;SDS_P1;SDS_P2;PMS_P1;PMS_P2;Temp;Humidity;BMP_temperature;BMP_pressure;BME280_temperature;BME280_humidity;BME280_pressure;Samples;Min_cycle;Max_cycle;Signal;HPM_P1;HPM_P2
2022/04/14 00:01:30;;;;;;;139.77;72.10;;;;;;;10.49;100.00;101840.59;10461028;28;20056;-77
2022/04/14 00:06:31;;;;;;;114.82;63.35;;;;;;;10.54;100.00;101849.63;10459715;28;20053;-77
2022/04/14 00:11:32;;;;;;;128.25;65.07;;;;;;;10.55;100.00;101850.56;10411412;28;20032;-77
2022/04/14 00:16:32;;;;;;;125.07;67.85;;;;;;;10.45;100.00;101850.78;10458183;28;20471;-77
2022/04/14 00:21:33;;;;;;;121.80;67.50;;;;;;;10.37;100.00;101837.16;10435425;28;20484;-77
2022/04/14 00:26:33;;;;;;;107.28;59.88;;;;;;;10.27;100.00;101823.47;10449561;28;20045;-76
2022/04/14 00:31:34;;;;;;;122.50;64.22;;;;;;;10.19;100.00;101826.44;10452076;28;20032;-77
2022/04/14 00:36:34;;;;;;;128.00;73.05;;;;;;;10.11;100.00;101821.59;10481423;28;20124;-76
2022/04/14 00:41:36;;;;;;;98.00;55.78;;;;;;;10.14;100.00;101824.44;10487944;28;20511;-77
2022/04/14 00:46:36;;;;;;;122.20;68.15;;;;;;;10.07;100.00;101822.22;10458945;28;20084;-77
2022/04/14 00:51:37;;;;;;;116.78;66.43;;;;;;;10.00;100.00;101814.78;10469414;28;20048;-77
2022/04/14 00:56:37;;;;;;;118.97;65.15;;;;;;;9.96;100.00;101829.34;10449540;28;20044;-76
2022/04/14 01:01:38;;;;;;;141.10;68.85;;;;;;;9.94;100.00;101823.09;10468136;28;20078;-77
2022/04/14 01:06:39;;;;;;;135.07;70.22;;;;;;;10.03;100.00;101827.13;10447963;28;20488;-77
2022/04/14 01:11:40;;;;;;;124.38;66.13;;;;;;;9.93;100.00;101839.59;10465265;28;20033;-76
2022/04/14 01:16:41;;;;;;;124.80;65.93;;;;;;;9.89;100.00;101842.81;10481264;28;20045;-77
2022/04/14 01:21:48;;;;;;;141.50;74.32;;;;;;;9.84;100.00;101845.16;10495237;28;20021;-77
2022/04/14 01:26:49;;;;;;;127.50;67.28;;;;;;;9.70;100.00;101843.31;10463275;28;20028;-77
2022/04/14 01:31:50;;;;;;;106.72;58.50;;;;;;;9.73;100.00;101842.59;10450584;28;20121;-77
2022/04/14 01:36:51;;;;;;;132.35;75.70;;;;;;;9.65;100.00;101848.22;10438564;28;20033;-77
2022/04/14 01:41:51;;;;;;;147.50;73.30;;;;;;;9.66;100.00;101844.81;10449490;28;20079;-77
2022/04/14 01:46:52;;;;;;;141.35;74.50;;;;;;;9.72;100.00;101839.09;10475077;28;20093;-77
2022/04/14 01:51:52;;;;;;;159.40;81.97;;;;;;;9.71;100.00;101837.28;10446686;28;20065;-77
2022/04/14 01:56:53;;;;;;;124.28;65.82;;;;;;;9.77;100.00;101837.69;10497486;28;20071;-77
2022/04/14 02:01:53;;;;;;;111.57;66.45;;;;;;;9.81;100.00;101831.88;10470361;28;20088;-77
2022/04/14 02:06:54;;;;;;;126.85;67.45;;;;;;;9.73;100.00;101842.59;10437719;28;20072;-77
2022/04/14 02:11:54;;;;;;;124.55;67.90;;;;;;;9.67;100.00;101844.00;10440774;28;20112;-78
2022/04/14 02:16:55;;;;;;;99.90;57.08;;;;;;;9.55;100.00;101838.88;10413269;28;20060;-77
2022/04/14 02:21:58;;;;;;;96.28;55.03;;;;;;;9.52;100.00;101835.13;10470090;28;20170;-77
2022/04/14 02:26:58;;;;;;;100.30;57.15;;;;;;;9.40;100.00;101837.84;10494585;28;20436;-77
2022/04/14 02:32:00;;;;;;;93.88;50.75;;;;;;;9.34;100.00;101842.66;10469518;28;20123;-77
2022/04/14 02:37:00;;;;;;;90.97;51.63;;;;;;;9.30;100.00;101835.41;10420541;28;20074;-77
2022/04/14 02:42:01;;;;;;;96.50;49.13;;;;;;;9.18;100.00;101823.31;10449867;28;20549;-77
2022/04/14 02:47:01;;;;;;;87.47;49.28;;;;;;;9.12;100.00;101828.13;10453890;28;20118;-77
2022/04/14 02:52:02;;;;;;;90.30;46.33;;;;;;;9.05;100.00;101829.38;10476936;28;20440;-77
2022/04/14 02:57:05;;;;;;;83.78;43.08;;;;;;;9.04;100.00;101831.91;10495293;28;20102;-77
2022/04/14 03:02:06;;;;;;;70.28;38.63;;;;;;;9.04;100.00;101827.56;10451027;28;20075;-77
2022/04/14 03:07:06;;;;;;;91.82;44.88;;;;;;;8.98;100.00;101831.47;10435673;28;20037;-77
2022/04/14 03:12:07;;;;;;;63.42;38.35;;;;;;;8.91;100.00;101827.50;10453908;28;20108;-77
2022/04/14 03:17:08;;;;;;;69.00;38.80;;;;;;;8.86;100.00;101829.81;10485621;28;20070;-77
2022/04/14 03:22:08;;;;;;;71.50;39.20;;;;;;;8.84;100.00;101838.31;10494561;28;20518;-77
2022/04/14 03:27:09;;;;;;;54.75;30.88;;;;;;;8.86;100.00;101839.34;10467002;28;20090;-77
2022/04/14 03:32:09;;;;;;;62.38;36.13;;;;;;;8.76;100.00;101838.69;10473799;28;20088;-77
2022/04/14 03:37:10;;;;;;;58.97;32.65;;;;;;;8.77;100.00;101842.22;10453865;28;20064;-77
2022/04/14 03:42:11;;;;;;;58.15;32.97;;;;;;;8.71;100.00;101841.78;10425978;28;20124;-77
2022/04/14 03:47:11;;;;;;;53.78;31.33;;;;;;;8.72;100.00;101841.88;10392441;28;20072;-77
2022/04/14 03:52:12;;;;;;;60.53;35.08;;;;;;;8.62;100.00;101840.34;10416240;28;20400;-77
2022/04/14 03:57:13;;;;;;;67.15;34.80;;;;;;;8.56;100.00;101850.34;10408934;28;20069;-77
2022/04/14 04:02:13;;;;;;;64.95;33.97;;;;;;;8.49;100.00;101848.97;10394479;28;20127;-76
2022/04/14 04:07:14;;;;;;;56.78;31.40;;;;;;;8.45;100.00;101851.25;10398327;28;20061;-77
2022/04/14 04:12:14;;;;;;;53.63;31.08;;;;;;;8.34;100.00;101847.84;10400470;28;20114;-77
2022/04/14 04:17:16;;;;;;;54.22;28.30;;;;;;;8.27;100.00;101856.94;10391692;28;20108;-77
2022/04/14 04:22:16;;;;;;;33.67;20.02;;;;;;;8.21;100.00;101862.59;10409945;28;20080;-76
2022/04/14 04:27:17;;;;;;;44.25;26.77;;;;;;;8.13;100.00;101863.75;10387577;28;20132;-77
2022/04/14 04:32:17;;;;;;;46.88;27.73;;;;;;;8.10;100.00;101866.13;10356742;28;20187;-77
2022/04/14 04:37:18;;;;;;;42.33;23.83;;;;;;;8.11;100.00;101869.66;10380823;28;20038;-76
2022/04/14 04:42:18;;;;;;;50.42;24.77;;;;;;;8.12;100.00;101863.63;10372211;28;20057;-76
2022/04/14 04:47:22;;;;;;;43.35;26.98;;;;;;;8.15;100.00;101874.28;10386624;28;20076;-77
2022/04/14 04:52:22;;;;;;;53.08;27.38;;;;;;;8.08;100.00;101868.63;10392940;28;20637;-77
2022/04/14 04:57:23;;;;;;;52.53;29.90;;;;;;;8.04;100.00;101878.69;10388236;28;20120;-78
2022/04/14 05:02:26;;;;;;;47.13;27.02;;;;;;;7.97;100.00;101882.56;10410888;28;20075;-75
2022/04/14 05:07:27;;;;;;;55.60;28.15;;;;;;;7.96;100.00;101878.16;10413209;28;20163;-77
2022/04/14 05:12:27;;;;;;;58.13;29.25;;;;;;;7.97;100.00;101885.19;10415721;28;20106;-77
2022/04/14 05:17:28;;;;;;;46.95;28.98;;;;;;;8.02;100.00;101883.81;10437362;28;20147;-77
2022/04/14 05:22:28;;;;;;;52.95;30.48;;;;;;;7.91;100.00;101898.63;10439204;28;20064;-78
2022/04/14 05:27:29;;;;;;;46.75;27.67;;;;;;;7.84;100.00;101895.47;10420933;28;20504;-78
2022/04/14 05:32:29;;;;;;;36.47;19.67;;;;;;;7.85;100.00;101898.19;10413410;28;20040;-78
2022/04/14 05:37:30;;;;;;;47.15;27.40;;;;;;;7.72;100.00;101911.06;10395230;28;20388;-76
2022/04/14 05:42:30;;;;;;;45.72;26.00;;;;;;;7.66;100.00;101911.53;10409660;28;20061;-76
2022/04/14 05:47:31;;;;;;;43.67;26.45;;;;;;;7.60;100.00;101916.28;10364663;28;20053;-76
2022/04/14 05:52:31;;;;;;;41.05;23.67;;;;;;;7.56;100.00;101925.53;10390728;28;20044;-75
2022/04/14 05:57:32;;;;;;;41.53;24.45;;;;;;;7.62;100.00;101925.13;10413169;28;20132;-76
2022/04/14 06:02:33;;;;;;;47.97;30.98;;;;;;;7.64;100.00;101932.25;10414696;28;20045;-77
2022/04/14 06:07:33;;;;;;;53.20;28.92;;;;;;;7.58;100.00;101931.78;10383205;28;20472;-78
2022/04/14 06:12:33;;;;;;;44.13;26.77;;;;;;;7.60;100.00;101932.81;10415953;28;20076;-76
2022/04/14 06:17:34;;;;;;;46.58;26.30;;;;;;;7.83;100.00;101935.38;10405558;28;20064;-77
2022/04/14 06:22:39;;;;;;;36.88;21.75;;;;;;;8.48;100.00;101925.41;10400861;28;20124;-77
2022/04/14 06:27:43;;;;;;;35.25;23.05;;;;;;;9.27;100.00;101929.22;10379626;28;20436;-76
2022/04/14 06:33:02;;;;;;;25.95;19.38;;;;;;;10.04;100.00;101939.72;10373918;28;20040;-78
2022/04/14 06:38:03;;;;;;;22.50;15.18;;;;;;;10.65;100.00;101934.13;10404869;28;20380;-78
2022/04/14 06:43:03;;;;;;;19.20;14.43;;;;;;;11.09;99.17;101947.31;10364315;28;20039;-78
2022/04/14 06:48:04;;;;;;;18.08;12.07;;;;;;;11.59;92.85;101940.75;10410027;28;20075;-76
2022/04/14 06:53:05;;;;;;;19.42;12.77;;;;;;;11.88;91.35;101938.97;10452786;28;20056;-76
2022/04/14 06:58:07;;;;;;;20.63;13.40;;;;;;;13.16;87.80;101926.94;10445741;28;20052;-77
2022/04/14 07:03:08;;;;;;;16.90;12.85;;;;;;;14.33;80.51;101940.84;10394772;28;20492;-77
2022/04/14 07:08:08;;;;;;;19.42;12.23;;;;;;;15.35;76.08;101931.56;10462670;28;20094;-79
2022/04/14 07:13:09;;;;;;;26.23;18.20;;;;;;;16.44;71.85;101930.06;10437373;28;20128;-78
2022/04/14 07:18:09;;;;;;;26.98;18.00;;;;;;;17.07;68.87;101938.69;10436982;28;20028;-78
2022/04/14 07:23:10;;;;;;;33.42;22.10;;;;;;;17.56;68.78;101936.06;10475488;28;20047;-77
2022/04/14 07:28:10;;;;;;;34.20;19.87;;;;;;;18.09;66.44;101949.41;10470573;28;20104;-76
2022/04/14 07:33:11;;;;;;;28.93;20.03;;;;;;;18.25;64.95;101948.19;10460524;28;20036;-78
2022/04/14 07:38:13;;;;;;;33.53;20.03;;;;;;;18.29;66.58;101949.16;10474061;28;20071;-78
2022/04/14 07:43:13;;;;;;;;;;;;;;;19.33;61.68;101937.34;10438481;28;20506;-79
2022/04/14 07:48:16;;;;;;;37.08;25.25;;;;;;;19.40;63.33;101938.44;10453364;28;19986;-78
2022/04/14 07:53:17;;;;;;;36.13;25.80;;;;;;;19.36;61.84;101948.06;10442718;28;20119;-79
2022/04/14 07:58:20;;;;;;;38.17;26.67;;;;;;;20.04;60.61;101946.38;10470878;28;20033;-79
2022/04/14 08:03:20;;;;;;;46.50;32.17;;;;;;;19.98;60.37;101946.22;10488514;28;20090;-79
2022/04/14 08:08:22;;;;;;;43.03;31.17;;;;;;;19.76;60.86;101950.00;10481344;28;20503;-79
2022/04/14 08:13:25;;;;;;;39.85;28.95;;;;;;;21.07;57.09;101943.47;10427952;28;20086;-76
2022/04/14 08:18:26;;;;;;;46.72;32.47;;;;;;;21.35;55.93;101952.03;10463855;28;20387;-77
2022/04/14 08:23:26;;;;;;;44.60;32.70;;;;;;;22.47;52.73;101946.94;10469931;28;20127;-77
2022/04/14 08:28:27;;;;;;;40.03;31.23;;;;;;;21.59;54.08;101956.03;10418124;28;20124;-77
2022/04/14 08:33:27;;;;;;;47.47;35.40;;;;;;;22.67;51.79;101947.25;10441211;28;20090;-77
2022/04/14 08:38:28;;;;;;;44.57;35.17;;;;;;;23.50;49.21;101948.31;10471288;28;20055;-83
2022/04/14 08:43:33;;;;;;;42.47;33.97;;;;;;;24.17;48.20;101947.22;10482347;28;20076;-82
2022/04/14 08:48:34;;;;;;;39.42;29.30;;;;;;;24.07;44.05;101943.56;10455363;28;20037;-77
2022/04/14 08:53:35;;;;;;;39.90;30.38;;;;;;;23.19;47.52;101954.19;10452719;28;20040;-78
2022/04/14 08:58:37;;;;;;;45.47;29.40;;;;;;;21.95;51.41;101945.19;10468271;28;20038;-78
2022/04/14 09:03:38;;;;;;;49.08;32.90;;;;;;;23.13;48.65;101944.28;10427143;28;20119;-78
2022/04/14 09:08:39;;;;;;;42.33;35.23;;;;;;;23.56;47.78;101930.59;10413224;28;20498;-77
2022/04/14 09:13:43;;;;;;;40.83;29.30;;;;;;;22.73;50.30;101934.00;10437010;28;20345;-77
2022/04/14 09:18:45;;;;;;;37.00;28.23;;;;;;;24.85;46.08;101926.28;10398671;28;20037;-78
2022/04/14 09:23:50;;;;;;;36.13;29.40;;;;;;;26.20;42.50;101923.94;10490286;28;20106;-79
2022/04/14 09:29:10;;;;;;;43.85;32.08;;;;;;;26.13;42.82;101926.59;10462091;28;20044;-79
2022/04/14 09:34:10;;;;;;;36.58;28.17;;;;;;;25.68;41.90;101919.41;10464957;28;20028;-81
2022/04/14 09:39:12;;;;;;;38.13;29.07;;;;;;;23.98;44.50;101930.97;10462190;28;20029;-81
2022/04/14 09:44:14;;;;;;;40.33;31.58;;;;;;;23.10;46.65;101924.69;10478777;28;20049;-81
2022/04/14 09:49:15;;;;;;;35.40;24.92;;;;;;;23.35;44.35;101912.53;10446239;28;20040;-81
2022/04/14 09:54:17;;;;;;;38.45;25.35;;;;;;;22.67;48.32;101917.91;10478096;28;20036;-80
2022/04/14 09:59:22;;;;;;;28.63;22.38;;;;;;;24.82;41.79;101907.53;10461288;28;20111;-77
2022/04/14 10:04:33;;;;;;;35.55;25.35;;;;;;;23.98;44.48;101909.59;10478050;28;20029;-81
2022/04/14 10:09:35;;;;;;;33.03;26.67;;;;;;;24.55;43.98;101905.56;10479612;28;20036;-81
2022/04/14 10:14:35;;;;;;;;;;;;;;;24.96;42.15;101895.97;10461003;28;20469;-81
2022/04/14 10:19:36;;;;;;;34.67;25.10;;;;;;;23.73;43.60;101903.16;10477170;28;19920;-81
2022/04/14 10:24:38;;;;;;;27.00;20.13;;;;;;;23.52;46.17;101888.69;10490407;28;20327;-82
2022/04/14 10:29:39;;;;;;;25.08;19.65;;;;;;;25.67;40.60;101871.19;10472052;28;20052;-81
2022/04/14 10:34:39;;;;;;;26.03;19.27;;;;;;;27.48;36.17;101861.69;10437418;28;20467;-82
2022/04/14 10:39:43;;;;;;;21.27;15.43;;;;;;;25.97;38.16;101869.41;10477585;28;20032;-81
2022/04/14 10:44:45;;;;;;;22.80;16.42;;;;;;;25.86;39.16;101874.75;10459731;28;20047;-81
2022/04/14 10:49:49;;;;;;;23.23;17.80;;;;;;;25.28;40.33;101871.09;10435676;28;20088;-82
2022/04/14 10:54:59;;;;;;;22.85;16.88;;;;;;;24.96;40.04;101880.81;10418993;28;20035;-83
2022/04/14 11:00:00;;;;;;;20.83;15.40;;;;;;;24.33;38.95;101890.28;10492446;28;20029;-84
2022/04/14 11:05:00;;;;;;;19.90;15.83;;;;;;;20.90;46.70;101908.50;10459388;28;20440;-82
2022/04/14 11:10:01;;;;;;;17.77;14.17;;;;;;;19.83;49.83;101920.09;10395290;28;20124;-80
2022/04/14 11:15:05;;;;;;;19.95;11.93;;;;;;;19.89;50.01;101916.72;10377225;28;20034;-80
2022/04/14 11:20:16;;;;;;;19.42;12.70;;;;;;;22.02;46.49;101907.97;10475778;28;20463;-85
2022/04/14 11:25:39;;;;;;;19.73;11.23;;;;;;;22.24;42.20;101907.44;10490906;28;20049;-82
2022/04/14 11:30:40;;;;;;;13.45;10.25;;;;;;;20.39;45.80;101916.19;10471683;28;20110;-82
2022/04/14 11:35:47;;;;;;;18.93;13.83;;;;;;;18.99;50.20;101922.22;10408040;28;20481;-82
2022/04/14 11:40:54;;;;;;;18.27;13.13;;;;;;;18.34;53.65;101916.69;10386521;28;20034;-81
2022/04/14 11:45:56;;;;;;;11.82;8.70;;;;;;;19.45;48.71;101904.03;10360176;28;20139;-82
2022/04/14 11:50:57;;;;;;;14.88;6.80;;;;;;;19.70;47.38;101907.34;10361632;28;20391;-82
2022/04/14 11:55:57;;;;;;;14.55;8.27;;;;;;;19.51;49.62;101907.78;10375755;28;20070;-82
2022/04/14 12:00:58;;;;;;;12.45;8.77;;;;;;;21.99;45.13;101896.38;10376496;28;20057;-82
2022/04/14 12:06:03;;;;;;;15.17;6.97;;;;;;;26.38;34.47;101887.25;10359195;28;20037;-81
2022/04/14 12:11:14;;;;;;;7.35;5.28;;;;;;;23.69;39.07;101901.31;10359261;28;20030;-82
2022/04/14 12:16:14;;;;;;;8.35;4.05;;;;;;;21.76;41.32;101898.69;10360424;28;20040;-82
2022/04/14 12:21:19;;;;;;;7.73;3.43;;;;;;;23.23;45.00;101891.94;10358931;28;20492;-82
2022/04/14 12:26:20;;;;;;;4.38;2.97;;;;;;;26.06;34.04;101885.47;10358894;28;20924;-83
2022/04/14 12:31:21;;;;;;;7.43;2.17;;;;;;;27.54;31.48;101883.19;10358744;28;20030;-83
2022/04/14 12:36:34;;;;;;;4.10;2.67;;;;;;;24.51;35.70;101893.06;10358760;28;20090;-81
2022/04/14 12:41:36;;;;;;;4.47;2.75;;;;;;;23.12;37.81;101894.44;10357716;28;20374;-81
2022/04/14 12:46:38;;;;;;;3.55;2.53;;;;;;;23.65;40.06;101886.16;10356312;28;20045;-81
2022/04/14 12:51:39;;;;;;;;;;;;;;;26.14;35.60;101885.47;10359341;28;20512;-81
2022/04/14 12:56:39;;;;;;;4.60;1.85;;;;;;;26.85;31.47;101882.66;10402843;28;19920;-81
2022/04/14 13:01:44;;;;;;;4.87;1.80;;;;;;;27.25;32.15;101877.06;10439010;28;20045;-81
2022/04/14 13:07:02;;;;;;;3.38;1.58;;;;;;;27.41;30.49;101879.66;10423227;28;20040;-82
2022/04/14 13:12:06;;;;;;;2.28;1.70;;;;;;;26.96;32.69;101882.63;10439628;28;20170;-82
2022/04/14 13:17:07;;;;;;;5.80;2.35;;;;;;;27.45;31.77;101872.47;10438717;28;20036;-82
2022/04/14 13:22:07;;;;;;;1.97;1.57;;;;;;;27.37;31.52;101875.19;10416222;28;20119;-82
2022/04/14 13:27:08;;;;;;;4.97;2.03;;;;;;;24.44;35.29;101876.97;10455796;28;20071;-83
2022/04/14 13:32:08;;;;;;;3.23;2.47;;;;;;;24.49;35.83;101883.25;10428271;28;20022;-81
2022/04/14 13:37:09;;;;;;;5.43;2.13;;;;;;;25.23;32.82;101876.44;10412624;28;20060;-81
2022/04/14 13:42:09;;;;;;;4.80;2.63;;;;;;;23.43;37.02;101881.47;10429078;28;20037;-81
2022/04/14 13:47:10;;;;;;;6.33;3.63;;;;;;;22.10;39.41;101875.25;10450019;28;20404;-81
2022/04/14 13:52:11;;;;;;;5.50;4.00;;;;;;;23.71;38.93;101878.19;10436792;28;20053;-82
2022/04/14 13:57:11;;;;;;;5.80;4.10;;;;;;;25.06;35.40;101871.03;10436447;28;20100;-82
2022/04/14 14:02:13;;;;;;;9.00;4.82;;;;;;;26.55;32.03;101857.66;10439242;28;20079;-81
2022/04/14 14:07:14;;;;;;;8.03;4.50;;;;;;;26.56;32.25;101872.88;10436351;28;20063;-79
2022/04/14 14:12:14;;;;;;;8.60;6.57;;;;;;;24.03;35.98;101875.78;10435689;28;20067;-81
2022/04/14 14:17:16;;;;;;;10.33;8.37;;;;;;;21.63;39.86;101894.00;10435683;28;20056;-81
2022/04/14 14:22:17;;;;;;;8.18;7.30;;;;;;;20.28;42.32;101893.78;10454501;28;20040;-81
2022/04/14 14:27:17;;;;;;;9.70;7.88;;;;;;;19.63;44.10;101896.56;10435326;28;20067;-81
2022/04/14 14:32:18;;;;;;;12.00;8.35;;;;;;;19.14;44.53;101893.47;10435948;28;20020;-82
2022/04/14 14:37:18;;;;;;;9.07;5.13;;;;;;;19.04;48.51;101897.59;10435814;28;20082;-82
2022/04/14 14:42:19;;;;;;;20.73;6.72;;;;;;;19.93;46.76;101905.34;10461939;28;20029;-79
2022/04/14 14:47:19;;;;;;;9.88;4.68;;;;;;;19.73;49.02;101900.38;10401155;28;20128;-80
2022/04/14 14:52:20;;;;;;;13.50;5.60;;;;;;;19.52;48.35;101906.00;10412997;28;20508;-80
2022/04/14 14:57:20;;;;;;;10.55;6.10;;;;;;;19.57;47.89;101898.19;10389599;28;20500;-80
2022/04/14 15:02:21;;;;;;;7.70;4.03;;;;;;;20.83;46.02;101895.06;10392866;28;20077;-81
2022/04/14 15:07:21;;;;;;;13.25;4.90;;;;;;;20.86;44.83;101894.25;10377085;28;20065;-81
2022/04/14 15:12:22;;;;;;;9.93;4.53;;;;;;;21.40;44.13;101897.97;10429887;28;20084;-79
2022/04/14 15:17:22;;;;;;;5.70;3.60;;;;;;;22.20;42.40;101894.06;10385670;28;20537;-81
2022/04/14 15:22:23;;;;;;;7.30;3.58;;;;;;;22.52;40.88;101896.34;10396899;28;20060;-81
2022/04/14 15:27:23;;;;;;;9.83;5.63;;;;;;;22.50;40.68;101893.66;10400264;28;20120;-82
2022/04/14 15:32:24;;;;;;;6.60;4.83;;;;;;;22.02;41.03;101894.66;10378744;28;20506;-82
2022/04/14 15:37:24;;;;;;;8.27;3.53;;;;;;;22.08;41.85;101902.75;10389996;28;20057;-81
2022/04/14 15:42:24;;;;;;;6.17;4.30;;;;;;;20.87;44.57;101908.44;10391371;28;20060;-78
2022/04/14 15:47:25;;;;;;;7.50;4.55;;;;;;;20.91;43.73;101907.63;10335315;28;20095;-81
2022/04/14 15:52:26;;;;;;;5.23;3.50;;;;;;;21.18;42.54;101917.97;10392348;28;20041;-81
2022/04/14 15:57:26;;;;;;;8.10;4.53;;;;;;;20.62;44.53;101927.38;10354992;28;20069;-81
2022/04/14 16:02:27;;;;;;;8.63;4.00;;;;;;;19.49;46.37;101921.84;10417001;28;20036;-82
2022/04/14 16:07:30;;;;;;;9.45;5.90;;;;;;;18.73;48.00;101932.91;10417277;28;20287;-83
2022/04/14 16:12:30;;;;;;;10.57;5.68;;;;;;;18.32;50.02;101936.00;10382722;28;20037;-83
2022/04/14 16:17:31;;;;;;;16.70;7.82;;;;;;;18.13;51.14;101937.16;10415517;28;20083;-83
2022/04/14 16:22:31;;;;;;;12.18;5.70;;;;;;;17.94;51.20;101935.59;10401509;28;20539;-80
2022/04/14 16:27:33;;;;;;;12.88;6.07;;;;;;;18.36;50.73;101944.97;10378479;28;20036;-80
2022/04/14 16:32:34;;;;;;;8.57;5.10;;;;;;;18.71;51.03;101931.94;10408040;28;20025;-80
2022/04/14 16:37:34;;;;;;;13.48;5.40;;;;;;;18.86;47.93;101937.72;10403826;28;20153;-79
2022/04/14 16:42:35;;;;;;;14.30;6.32;;;;;;;18.38;51.75;101945.94;10414640;28;20021;-80
2022/04/14 16:47:35;;;;;;;9.90;6.13;;;;;;;17.86;53.15;101949.47;10386170;28;20136;-79
2022/04/14 16:52:36;;;;;;;13.35;9.15;;;;;;;17.57;53.46;101953.75;10397289;28;20168;-80
2022/04/14 16:57:37;;;;;;;14.82;9.30;;;;;;;17.32;55.18;101950.22;10382151;28;20044;-79
2022/04/14 17:02:38;;;;;;;21.42;18.92;;;;;;;17.00;57.11;101965.75;10399643;28;20481;-80
2022/04/14 17:07:39;;;;;;;18.97;16.93;;;;;;;16.86;56.90;101965.16;10381310;28;20036;-80
2022/04/14 17:12:39;;;;;;;18.60;16.15;;;;;;;16.68;57.73;101970.66;10414645;28;20496;-80
2022/04/14 17:17:40;;;;;;;20.08;15.98;;;;;;;16.39;59.05;101976.53;10415724;28;20036;-80
2022/04/14 17:27:59;;;;;;;19.08;16.80;;;;;;;15.92;61.57;101968.41;10385408;28;20466;-80
2022/04/14 17:33:00;;;;;;;19.50;17.27;;;;;;;15.70;61.89;101974.44;10414688;28;20033;-80
2022/04/14 17:38:02;;;;;;;19.50;17.42;;;;;;;15.48;62.48;101977.88;10380053;28;20428;-79
2022/04/14 17:43:03;;;;;;;24.42;17.67;;;;;;;15.30;63.34;101992.03;10381477;28;20477;-79
2022/04/14 17:48:04;;;;;;;21.05;17.02;;;;;;;15.11;63.86;101987.59;10438024;28;20041;-79
2022/04/14 17:53:05;;;;;;;16.77;15.07;;;;;;;14.93;64.56;101998.19;10455586;28;20442;-79
2022/04/14 17:58:06;;;;;;;17.23;14.20;;;;;;;14.74;64.52;102009.56;10435892;28;20162;-79
2022/04/14 18:03:06;;;;;;;15.82;13.18;;;;;;;14.60;65.08;101999.22;10436912;28;20064;-80
2022/04/14 18:08:07;;;;;;;13.77;11.25;;;;;;;14.34;66.20;102014.63;10437202;28;20095;-79
2022/04/14 18:13:07;;;;;;;15.77;10.20;;;;;;;14.18;66.60;102012.97;10435589;28;20024;-79
2022/04/14 18:18:09;;;;;;;12.85;10.10;;;;;;;14.05;66.90;102021.94;10454257;28;20116;-79
2022/04/14 18:23:10;;;;;;;16.23;9.32;;;;;;;13.90;67.60;102023.78;10435918;28;20032;-79
2022/04/14 18:28:10;;;;;;;13.70;8.23;;;;;;;13.74;68.18;102022.97;10435750;28;20052;-79
2022/04/14 18:33:12;;;;;;;13.02;10.07;;;;;;;13.58;68.32;102029.16;10453252;28;20065;-79
2022/04/14 18:38:13;;;;;;;13.25;7.60;;;;;;;13.40;69.01;102036.00;10418601;28;20029;-79
2022/04/14 18:43:13;;;;;;;12.80;8.80;;;;;;;13.13;70.09;102046.81;10453051;28;20571;-79
2022/04/14 18:48:14;;;;;;;14.35;8.70;;;;;;;12.90;70.54;102057.81;10436890;28;20116;-79
2022/04/14 18:53:14;;;;;;;9.98;7.20;;;;;;;12.62;71.68;102065.81;10452345;28;20126;-79
2022/04/14 18:58:15;;;;;;;11.85;9.05;;;;;;;12.38;72.63;102074.06;10451794;28;20071;-79
2022/04/14 19:03:15;;;;;;;11.60;7.10;;;;;;;12.32;73.81;102076.31;10453723;28;20033;-79
2022/04/14 19:08:16;;;;;;;12.07;8.98;;;;;;;12.16;74.04;102084.97;10422454;28;20041;-79
2022/04/14 19:13:16;;;;;;;10.63;7.75;;;;;;;11.98;75.07;102098.75;10439442;28;20035;-78
2022/04/14 19:18:17;;;;;;;12.57;8.25;;;;;;;11.67;75.64;102099.47;10426105;28;20476;-78
2022/04/14 19:23:17;;;;;;;13.48;8.93;;;;;;;11.46;76.62;102107.78;10423124;28;20028;-78
2022/04/14 19:28:18;;;;;;;11.65;8.68;;;;;;;11.24;77.31;102115.06;10458172;28;20560;-77
2022/04/14 19:33:19;;;;;;;11.43;7.78;;;;;;;11.08;78.44;102116.69;10438447;28;20124;-78
2022/04/14 19:38:19;;;;;;;13.02;8.43;;;;;;;10.97;79.15;102118.63;10443199;28;20392;-78
2022/04/14 19:43:19;;;;;;;11.32;9.35;;;;;;;10.92;80.12;102129.59;10458457;28;20045;-78
2022/04/14 19:48:20;;;;;;;13.82;8.73;;;;;;;10.77;79.90;102129.50;10462283;28;20444;-78
2022/04/14 19:53:21;;;;;;;14.48;8.95;;;;;;;10.61;80.24;102136.31;10476783;28;20044;-78
2022/04/14 19:58:21;;;;;;;12.32;9.95;;;;;;;10.51;80.66;102140.00;10459667;28;20136;-78
2022/04/14 20:03:25;;;;;;;14.30;10.25;;;;;;;10.42;81.10;102137.66;10458917;28;20488;-77
2022/04/14 20:08:25;;;;;;;15.48;10.75;;;;;;;10.33;81.56;102137.00;10468898;28;20519;-78
2022/04/14 20:13:26;;;;;;;15.13;11.48;;;;;;;10.28;82.05;102141.00;10402027;28;20037;-78
2022/04/14 20:18:29;;;;;;;14.45;10.63;;;;;;;10.16;81.90;102142.78;10399977;28;20116;-78
2022/04/14 20:23:29;;;;;;;16.27;9.95;;;;;;;9.98;81.79;102146.81;10461876;28;20455;-78
2022/04/14 20:28:30;;;;;;;15.35;10.05;;;;;;;9.84;82.83;102147.53;10414483;28;20046;-78
2022/04/14 20:33:32;;;;;;;15.25;10.23;;;;;;;9.81;83.56;102150.84;10398869;28;20037;-78
2022/04/14 20:38:34;;;;;;;13.18;9.57;;;;;;;9.66;83.29;102155.00;10467267;28;20464;-78
2022/04/14 20:43:36;;;;;;;15.65;9.98;;;;;;;9.42;83.26;102154.09;10468378;28;20080;-78
2022/04/14 20:48:37;;;;;;;15.88;9.80;;;;;;;9.22;84.58;102158.78;10463106;28;20036;-78
2022/04/14 20:53:37;;;;;;;16.45;10.15;;;;;;;9.03;85.57;102162.63;10433667;28;20033;-79
2022/04/14 20:58:38;;;;;;;19.85;10.63;;;;;;;8.79;86.01;102164.31;10489699;28;20029;-79
2022/04/14 21:03:38;;;;;;;11.73;9.02;;;;;;;8.62;86.66;102170.84;10445494;28;20065;-78
2022/04/14 21:08:39;;;;;;;22.15;14.45;;;;;;;8.61;88.37;102169.03;10445188;28;20508;-78
2022/04/14 21:13:39;;;;;;;22.17;15.40;;;;;;;8.73;89.40;102175.19;10396899;28;20040;-77
2022/04/14 21:18:40;;;;;;;26.98;16.35;;;;;;;8.57;88.21;102185.25;10475584;28;20060;-78
2022/04/14 21:23:40;;;;;;;21.50;13.82;;;;;;;8.30;88.42;102197.94;10462832;28;20060;-77
2022/04/14 21:28:41;;;;;;;20.50;13.55;;;;;;;8.16;88.46;102196.88;10469444;28;20060;-77
2022/04/14 21:33:41;;;;;;;35.72;17.27;;;;;;;8.11;88.81;102201.72;10409960;28;20068;-77
2022/04/14 21:38:42;;;;;;;25.85;15.57;;;;;;;8.05;89.41;102198.63;10431919;28;20057;-77
2022/04/14 21:43:42;;;;;;;19.52;14.05;;;;;;;7.96;89.46;102193.59;10436290;28;20148;-77
2022/04/14 21:48:46;;;;;;;27.75;16.65;;;;;;;8.00;90.30;102206.09;10452552;28;20067;-77
2022/04/14 21:53:50;;;;;;;23.80;15.48;;;;;;;7.99;90.77;102209.47;10447089;28;20052;-77
2022/04/14 21:58:50;;;;;;;23.55;15.05;;;;;;;7.84;91.13;102203.94;10462607;28;20440;-77
2022/04/14 22:03:51;;;;;;;27.45;16.80;;;;;;;7.61;91.24;102200.38;10474508;28;20123;-78
2022/04/14 22:08:51;;;;;;;27.70;17.45;;;;;;;7.54;91.88;102205.88;10451637;28;20071;-77
2022/04/14 22:13:52;;;;;;;26.30;17.42;;;;;;;7.37;92.22;102206.19;10442589;28;20449;-77
2022/04/14 22:18:52;;;;;;;28.30;17.50;;;;;;;7.24;93.48;102215.59;10452551;28;20420;-77
2022/04/14 22:23:53;;;;;;;27.05;16.55;;;;;;;7.02;92.79;102228.53;10455103;28;20428;-77
2022/04/14 22:28:53;;;;;;;21.83;14.40;;;;;;;6.87;93.26;102230.75;10450920;28;20548;-77
2022/04/14 22:33:54;;;;;;;28.60;14.82;;;;;;;6.73;92.53;102234.81;10467321;28;20043;-77
2022/04/14 22:38:54;;;;;;;26.70;16.08;;;;;;;6.68;92.82;102242.19;10447622;28;20112;-77
2022/04/14 22:43:55;;;;;;;26.30;17.88;;;;;;;6.63;93.16;102245.19;10418476;28;20504;-77
2022/04/14 22:48:55;;;;;;;33.25;19.13;;;;;;;6.60;93.60;102246.75;10463525;28;20059;-78